sensor_id;sensor_type;location;lat;lon;timestamp;pressure;altitude;pressure_sealevel;temperature;humidity
19736;BME280;32064;49.310;8.646;2023-05-19T00:01:05;101082.16;;;15.62;47.27
19736;BME280;32064;49.310;8.646;2023-05-19T00:03:32;101084.94;;;15.60;47.89
19736;BME280;32064;49.310;8.646;2023-05-19T00:06:00;101085.31;;;15.56;48.09
19736;BME280;32064;49.310;8.646;2023-05-19T00:08:29;101076.63;;;15.54;48.02
19736;BME280;32064;49.310;8.646;2023-05-19T00:10:55;101078.19;;;15.56;47.34
19736;BME280;32064;49.310;8.646;2023-05-19T00:13:22;101076.03;;;15.50;47.88
19736;BME280;32064;49.310;8.646;2023-05-19T00:15:48;101066.41;;;15.49;47.23
19736;BME280;32064;49.310;8.646;2023-05-19T00:18:13;101071.69;;;15.49;47.99
19736;BME280;32064;49.310;8.646;2023-05-19T00:20:40;101066.16;;;15.41;47.75
19736;BME280;32064;49.310;8.646;2023-05-19T00:23:06;101067.09;;;15.40;48.10
19736;BME280;32064;49.310;8.646;2023-05-19T00:25:31;101075.19;;;15.38;47.89
19736;BME280;32064;49.310;8.646;2023-05-19T00:27:57;101075.31;;;15.37;47.86
19736;BME280;32064;49.310;8.646;2023-05-19T00:30:23;101076.28;;;15.36;47.71
19736;BME280;32064;49.310;8.646;2023-05-19T00:32:49;101078.59;;;15.29;47.94
19736;BME280;32064;49.310;8.646;2023-05-19T00:35:15;101078.59;;;15.29;48.40
19736;BME280;32064;49.310;8.646;2023-05-19T00:37:40;101077.75;;;15.29;47.83
19736;BME280;32064;49.310;8.646;2023-05-19T00:40:06;101075.31;;;15.25;47.98
19736;BME280;32064;49.310;8.646;2023-05-19T00:42:32;101070.16;;;15.24;48.04
19736;BME280;32064;49.310;8.646;2023-05-19T00:44:58;101073.78;;;15.23;48.76
19736;BME280;32064;49.310;8.646;2023-05-19T00:47:24;101073.03;;;15.21;48.47
19736;BME280;32064;49.310;8.646;2023-05-19T00:49:49;101068.94;;;15.17;48.87
19736;BME280;32064;49.310;8.646;2023-05-19T00:52:15;101072.44;;;15.17;47.98
19736;BME280;32064;49.310;8.646;2023-05-19T00:54:40;101072.56;;;15.16;48.25
19736;BME280;32064;49.310;8.646;2023-05-19T00:57:06;101076.19;;;15.15;48.36
19736;BME280;32064;49.310;8.646;2023-05-19T00:59:31;101075.31;;;15.14;48.57
19736;BME280;32064;49.310;8.646;2023-05-19T01:01:57;101082.56;;;15.12;48.45
19736;BME280;32064;49.310;8.646;2023-05-19T01:04:22;101065.34;;;15.07;48.07
19736;BME280;32064;49.310;8.646;2023-05-19T01:06:50;101066.16;;;15.07;48.64
19736;BME280;32064;49.310;8.646;2023-05-19T01:09:21;101066.41;;;15.04;48.80
19736;BME280;32064;49.310;8.646;2023-05-19T01:11:49;101062.94;;;15.03;48.91
19736;BME280;32064;49.310;8.646;2023-05-19T01:14:15;101051.84;;;14.98;48.59
19736;BME280;32064;49.310;8.646;2023-05-19T01:17:34;101059.78;;;14.98;48.71
19736;BME280;32064;49.310;8.646;2023-05-19T01:19:52;101055.56;;;14.96;49.02
19736;BME280;32064;49.310;8.646;2023-05-19T01:30:39;101044.84;;;14.86;49.07
19736;BME280;32064;49.310;8.646;2023-05-19T01:33:07;101046.03;;;14.82;48.50
19736;BME280;32064;49.310;8.646;2023-05-19T01:35:37;101044.47;;;14.79;49.18
19736;BME280;32064;49.310;8.646;2023-05-19T01:38:09;101041.81;;;14.79;49.27
19736;BME280;32064;49.310;8.646;2023-05-19T01:40:36;101044.38;;;14.81;49.09
19736;BME280;32064;49.310;8.646;2023-05-19T01:43:02;101038.94;;;14.82;48.36
19736;BME280;32064;49.310;8.646;2023-05-19T01:45:30;101040.00;;;14.80;49.26
19736;BME280;32064;49.310;8.646;2023-05-19T01:47:58;101042.66;;;14.80;49.04
19736;BME280;32064;49.310;8.646;2023-05-19T01:50:24;101046.28;;;14.79;49.75
19736;BME280;32064;49.310;8.646;2023-05-19T01:52:50;101043.63;;;14.79;49.29
19736;BME280;32064;49.310;8.646;2023-05-19T01:55:16;101043.72;;;14.77;49.48
19736;BME280;32064;49.310;8.646;2023-05-19T01:57:57;101044.09;;;14.73;49.31
19736;BME280;32064;49.310;8.646;2023-05-19T02:06:13;101061.06;;;14.70;49.56
19736;BME280;32064;49.310;8.646;2023-05-19T02:08:50;101061.19;;;14.69;49.23
19736;BME280;32064;49.310;8.646;2023-05-19T02:11:46;101067.78;;;14.63;49.59
19736;BME280;32064;49.310;8.646;2023-05-19T02:14:33;101062.63;;;14.62;49.46
19736;BME280;32064;49.310;8.646;2023-05-19T02:17:00;101062.50;;;14.63;49.72
19736;BME280;32064;49.310;8.646;2023-05-19T02:19:30;101060.91;;;14.60;49.98
19736;BME280;32064;49.310;8.646;2023-05-19T02:21:56;101060.09;;;14.60;49.88
19736;BME280;32064;49.310;8.646;2023-05-19T02:24:21;101065.78;;;14.67;49.31
19736;BME280;32064;49.310;8.646;2023-05-19T02:26:48;101065.03;;;14.65;49.09
19736;BME280;32064;49.310;8.646;2023-05-19T02:29:14;101061.56;;;14.64;49.38
19736;BME280;32064;49.310;8.646;2023-05-19T02:31:40;101065.78;;;14.67;49.43
19736;BME280;32064;49.310;8.646;2023-05-19T02:34:05;101063.72;;;14.70;49.27
19736;BME280;32064;49.310;8.646;2023-05-19T02:36:33;101060.84;;;14.73;49.31
19736;BME280;32064;49.310;8.646;2023-05-19T02:39:02;101065.16;;;14.74;49.29
19736;BME280;32064;49.310;8.646;2023-05-19T02:41:28;101058.09;;;14.75;50.05
19736;BME280;32064;49.310;8.646;2023-05-19T02:43:53;101063.38;;;14.75;49.22
19736;BME280;32064;49.310;8.646;2023-05-19T02:46:19;101069.75;;;14.72;49.47
19736;BME280;32064;49.310;8.646;2023-05-19T02:48:44;101067.81;;;14.74;49.69
19736;BME280;32064;49.310;8.646;2023-05-19T02:51:10;101064.22;;;14.75;49.70
19736;BME280;32064;49.310;8.646;2023-05-19T02:53:35;101064.81;;;14.79;49.43
19736;BME280;32064;49.310;8.646;2023-05-19T02:56:00;101066.63;;;14.78;49.15
19736;BME280;32064;49.310;8.646;2023-05-19T02:58:26;101069.16;;;14.80;49.99
19736;BME280;32064;49.310;8.646;2023-05-19T03:00:51;101070.00;;;14.80;49.83
19736;BME280;32064;49.310;8.646;2023-05-19T03:03:17;101062.16;;;14.79;49.67
19736;BME280;32064;49.310;8.646;2023-05-19T03:05:42;101067.47;;;14.79;50.00
19736;BME280;32064;49.310;8.646;2023-05-19T03:08:08;101056.63;;;14.71;50.64
19736;BME280;32064;49.310;8.646;2023-05-19T03:10:34;101059.16;;;14.61;50.48
19736;BME280;32064;49.310;8.646;2023-05-19T03:12:59;101059.97;;;14.62;50.88
19736;BME280;32064;49.310;8.646;2023-05-19T03:15:25;101052.13;;;14.60;50.97
19736;BME280;32064;49.310;8.646;2023-05-19T03:17:50;101058.41;;;14.59;50.57
19736;BME280;32064;49.310;8.646;2023-05-19T03:20:16;101058.41;;;14.59;51.46
19736;BME280;32064;49.310;8.646;2023-05-19T03:22:42;101063.47;;;14.62;50.91
19736;BME280;32064;49.310;8.646;2023-05-19T03:25:08;101063.38;;;14.64;50.42
19736;BME280;32064;49.310;8.646;2023-05-19T03:27:33;101066.84;;;14.64;51.24
19736;BME280;32064;49.310;8.646;2023-05-19T03:29:59;101066.94;;;14.63;50.71
19736;BME280;32064;49.310;8.646;2023-05-19T03:32:24;101067.44;;;14.56;51.91
19736;BME280;32064;49.310;8.646;2023-05-19T03:34:50;101059.47;;;14.56;51.66
19736;BME280;32064;49.310;8.646;2023-05-19T03:37:15;101061.16;;;14.57;50.95
19736;BME280;32064;49.310;8.646;2023-05-19T03:39:40;101061.06;;;14.59;51.53
19736;BME280;32064;49.310;8.646;2023-05-19T03:42:06;101059.84;;;14.63;50.91
19736;BME280;32064;49.310;8.646;2023-05-19T03:44:31;101067.69;;;14.65;51.08
19736;BME280;32064;49.310;8.646;2023-05-19T03:46:57;101060.81;;;14.62;51.43
19736;BME280;32064;49.310;8.646;2023-05-19T03:49:22;101069.97;;;14.58;51.89
19736;BME280;32064;49.310;8.646;2023-05-19T03:51:47;101069.00;;;14.59;51.53
19736;BME280;32064;49.310;8.646;2023-05-19T03:54:13;101066.59;;;14.56;51.75
19736;BME280;32064;49.310;8.646;2023-05-19T03:56:38;101081.88;;;14.52;51.42
19736;BME280;32064;49.310;8.646;2023-05-19T03:59:05;101085.22;;;14.54;51.86
19736;BME280;32064;49.310;8.646;2023-05-19T04:01:33;101083.56;;;14.53;52.08
19736;BME280;32064;49.310;8.646;2023-05-19T04:03:58;101088.06;;;14.51;52.22
19736;BME280;32064;49.310;8.646;2023-05-19T04:06:23;101091.25;;;14.56;53.08
19736;BME280;32064;49.310;8.646;2023-05-19T04:08:49;101089.59;;;14.55;52.17
19736;BME280;32064;49.310;8.646;2023-05-19T04:11:14;101092.09;;;14.57;51.62
19736;BME280;32064;49.310;8.646;2023-05-19T04:13:40;101087.31;;;14.62;51.04
19736;BME280;32064;49.310;8.646;2023-05-19T04:16:05;101089.84;;;14.64;50.88
19736;BME280;32064;49.310;8.646;2023-05-19T04:18:31;101083.56;;;14.65;50.04
19736;BME280;32064;49.310;8.646;2023-05-19T04:20:56;101084.41;;;14.65;50.57
19736;BME280;32064;49.310;8.646;2023-05-19T04:23:22;101080.94;;;14.65;50.17
19736;BME280;32064;49.310;8.646;2023-05-19T04:25:48;101083.09;;;14.71;50.17
19736;BME280;32064;49.310;8.646;2023-05-19T04:28:14;101088.31;;;14.72;50.25
19736;BME280;32064;49.310;8.646;2023-05-19T04:30:39;101081.56;;;14.79;49.79
19736;BME280;32064;49.310;8.646;2023-05-19T04:33:07;101084.09;;;14.81;50.34
19736;BME280;32064;49.310;8.646;2023-05-19T04:35:33;101088.44;;;14.82;49.90
19736;BME280;32064;49.310;8.646;2023-05-19T04:37:58;101088.09;;;14.87;49.28
19736;BME280;32064;49.310;8.646;2023-05-19T04:40:26;101080.59;;;14.92;49.54
19736;BME280;32064;49.310;8.646;2023-05-19T04:42:52;101092.75;;;14.94;49.45
19736;BME280;32064;49.310;8.646;2023-05-19T04:45:18;101097.72;;;14.99;49.97
19736;BME280;32064;49.310;8.646;2023-05-19T04:47:44;101097.00;;;14.97;49.47
19736;BME280;32064;49.310;8.646;2023-05-19T04:50:12;101097.47;;;15.02;49.42
19736;BME280;32064;49.310;8.646;2023-05-19T04:52:39;101096.31;;;15.06;49.45
19736;BME280;32064;49.310;8.646;2023-05-19T04:55:05;101102.94;;;15.12;49.29
19736;BME280;32064;49.310;8.646;2023-05-19T04:57:30;101104.38;;;15.16;49.62
19736;BME280;32064;49.310;8.646;2023-05-19T04:59:55;101101.47;;;15.19;49.28
19736;BME280;32064;49.310;8.646;2023-05-19T05:02:25;101104.84;;;15.21;49.80
19736;BME280;32064;49.310;8.646;2023-05-19T05:04:52;101106.44;;;15.23;49.73
19736;BME280;32064;49.310;8.646;2023-05-19T05:07:19;101105.78;;;15.20;49.69
19736;BME280;32064;49.310;8.646;2023-05-19T05:09:46;101109.31;;;15.20;50.20
19736;BME280;32064;49.310;8.646;2023-05-19T05:12:13;101109.31;;;15.32;49.90
19736;BME280;32064;49.310;8.646;2023-05-19T05:14:39;101109.78;;;15.37;49.46
19736;BME280;32064;49.310;8.646;2023-05-19T05:17:05;101112.81;;;15.43;50.40
19736;BME280;32064;49.310;8.646;2023-05-19T05:19:32;101112.44;;;15.48;50.46
19736;BME280;32064;49.310;8.646;2023-05-19T05:21:58;101107.25;;;15.46;50.32
19736;BME280;32064;49.310;8.646;2023-05-19T05:24:24;101111.97;;;15.54;51.58
19736;BME280;32064;49.310;8.646;2023-05-19T05:26:49;101106.75;;;15.64;50.98
19736;BME280;32064;49.310;8.646;2023-05-19T05:29:15;101107.03;;;15.72;50.38
19736;BME280;32064;49.310;8.646;2023-05-19T05:31:40;101106.53;;;15.78;50.81
19736;BME280;32064;49.310;8.646;2023-05-19T05:34:06;101109.91;;;15.80;51.45
19736;BME280;32064;49.310;8.646;2023-05-19T05:36:31;101110.22;;;15.87;50.86
19736;BME280;32064;49.310;8.646;2023-05-19T05:38:59;101111.91;;;15.88;50.63
19736;BME280;32064;49.310;8.646;2023-05-19T05:41:27;101104.81;;;15.88;50.31
19736;BME280;32064;49.310;8.646;2023-05-19T05:43:53;101106.00;;;15.96;51.44
19736;BME280;32064;49.310;8.646;2023-05-19T05:46:19;101104.53;;;16.03;51.17
19736;BME280;32064;49.310;8.646;2023-05-19T05:48:45;101097.03;;;16.08;50.58
19736;BME280;32064;49.310;8.646;2023-05-19T05:51:11;101101.59;;;16.17;50.87
19736;BME280;32064;49.310;8.646;2023-05-19T05:53:40;101092.78;;;16.16;51.15
19736;BME280;32064;49.310;8.646;2023-05-19T05:56:09;101093.31;;;16.31;49.93
19736;BME280;32064;49.310;8.646;2023-05-19T05:58:35;101096.75;;;16.43;50.21
19736;BME280;32064;49.310;8.646;2023-05-19T06:01:02;101094.56;;;16.48;49.38
19736;BME280;32064;49.310;8.646;2023-05-19T06:03:29;101100.19;;;16.55;49.86
19736;BME280;32064;49.310;8.646;2023-05-19T06:05:56;101088.16;;;16.72;49.78
19736;BME280;32064;49.310;8.646;2023-05-19T06:08:21;101093.56;;;16.81;48.17
19736;BME280;32064;49.310;8.646;2023-05-19T06:10:47;101093.81;;;16.99;48.85
19736;BME280;32064;49.310;8.646;2023-05-19T06:13:12;101096.13;;;17.23;49.03
19736;BME280;32064;49.310;8.646;2023-05-19T06:15:38;101096.50;;;17.40;47.35
19736;BME280;32064;49.310;8.646;2023-05-19T06:18:03;101095.16;;;17.55;47.31
19736;BME280;32064;49.310;8.646;2023-05-19T06:20:28;101093.06;;;17.59;47.23
19736;BME280;32064;49.310;8.646;2023-05-19T06:22:54;101093.50;;;17.73;47.20
19736;BME280;32064;49.310;8.646;2023-05-19T06:25:19;101102.25;;;17.85;48.10
19736;BME280;32064;49.310;8.646;2023-05-19T06:27:45;101091.63;;;17.95;48.18
19736;BME280;32064;49.310;8.646;2023-05-19T06:30:11;101095.44;;;18.12;47.09
19736;BME280;32064;49.310;8.646;2023-05-19T06:32:37;101090.53;;;18.27;46.72
19736;BME280;32064;49.310;8.646;2023-05-19T06:35:03;101087.44;;;18.41;45.06
19736;BME280;32064;49.310;8.646;2023-05-19T06:37:28;101098.66;;;18.54;45.34
19736;BME280;32064;49.310;8.646;2023-05-19T06:39:54;101092.44;;;18.63;45.76
19736;BME280;32064;49.310;8.646;2023-05-19T06:42:20;101092.16;;;18.76;45.33
19736;BME280;32064;49.310;8.646;2023-05-19T06:44:49;101095.06;;;18.93;44.72
19736;BME280;32064;49.310;8.646;2023-05-19T06:47:15;101098.88;;;19.27;45.28
19736;BME280;32064;49.310;8.646;2023-05-19T06:49:41;101096.19;;;19.65;45.55
19736;BME280;32064;49.310;8.646;2023-05-19T06:52:07;101089.38;;;19.98;44.57
19736;BME280;32064;49.310;8.646;2023-05-19T06:54:32;101100.84;;;20.08;43.99
19736;BME280;32064;49.310;8.646;2023-05-19T06:56:58;101108.84;;;20.26;42.92
19736;BME280;32064;49.310;8.646;2023-05-19T06:59:23;101094.03;;;20.50;42.33
19736;BME280;32064;49.310;8.646;2023-05-19T07:01:48;101104.19;;;20.64;43.07
19736;BME280;32064;49.310;8.646;2023-05-19T07:04:14;101098.06;;;20.72;42.98
19736;BME280;32064;49.310;8.646;2023-05-19T07:06:39;101100.38;;;20.67;42.57
19736;BME280;32064;49.310;8.646;2023-05-19T07:09:04;101091.50;;;20.66;41.99
19736;BME280;32064;49.310;8.646;2023-05-19T07:11:30;101097.75;;;20.75;43.21
19736;BME280;32064;49.310;8.646;2023-05-19T07:13:58;101089.72;;;20.75;42.41
19736;BME280;32064;49.310;8.646;2023-05-19T07:16:24;101081.66;;;20.93;42.34
19736;BME280;32064;49.310;8.646;2023-05-19T07:18:49;101074.94;;;21.15;42.14
19736;BME280;32064;49.310;8.646;2023-05-19T07:21:15;101076.16;;;21.63;41.06
19736;BME280;32064;49.310;8.646;2023-05-19T07:23:41;101076.00;;;21.72;41.40
19736;BME280;32064;49.310;8.646;2023-05-19T07:26:06;101083.22;;;21.80;40.87
19736;BME280;32064;49.310;8.646;2023-05-19T07:28:31;101078.19;;;21.77;40.81
19736;BME280;32064;49.310;8.646;2023-05-19T07:30:59;101079.00;;;21.69;40.30
19736;BME280;32064;49.310;8.646;2023-05-19T07:33:25;101074.66;;;21.68;40.10
19736;BME280;32064;49.310;8.646;2023-05-19T07:35:51;101070.81;;;21.87;41.07
19736;BME280;32064;49.310;8.646;2023-05-19T07:38:17;101070.06;;;22.28;40.08
19736;BME280;32064;49.310;8.646;2023-05-19T07:40:42;101073.47;;;24.73;36.93
19736;BME280;32064;49.310;8.646;2023-05-19T07:43:08;101069.38;;;26.80;33.92
19736;BME280;32064;49.310;8.646;2023-05-19T07:45:33;101066.19;;;28.14;31.54
19736;BME280;32064;49.310;8.646;2023-05-19T07:47:59;101067.16;;;29.19;31.45
19736;BME280;32064;49.310;8.646;2023-05-19T07:50:24;101068.22;;;29.95;29.74
19736;BME280;32064;49.310;8.646;2023-05-19T07:52:50;101065.75;;;30.50;29.52
19736;BME280;32064;49.310;8.646;2023-05-19T07:55:16;101072.16;;;30.81;28.90
19736;BME280;32064;49.310;8.646;2023-05-19T07:57:42;101070.06;;;30.33;28.95
19736;BME280;32064;49.310;8.646;2023-05-19T08:00:07;101073.38;;;30.60;28.65
19736;BME280;32064;49.310;8.646;2023-05-19T08:02:34;101071.22;;;30.18;28.63
19736;BME280;32064;49.310;8.646;2023-05-19T08:04:59;101070.56;;;30.48;28.71
19736;BME280;32064;49.310;8.646;2023-05-19T08:07:25;101066.91;;;29.21;29.60
19736;BME280;32064;49.310;8.646;2023-05-19T08:09:50;101069.28;;;27.36;31.38
19736;BME280;32064;49.310;8.646;2023-05-19T08:12:15;101075.97;;;28.08;31.25
19736;BME280;32064;49.310;8.646;2023-05-19T08:14:41;101064.88;;;29.09;29.82
19736;BME280;32064;49.310;8.646;2023-05-19T08:17:06;101057.84;;;29.47;29.22
19736;BME280;32064;49.310;8.646;2023-05-19T08:19:32;101064.72;;;30.19;28.76
19736;BME280;32064;49.310;8.646;2023-05-19T08:21:57;101063.66;;;30.71;28.12
19736;BME280;32064;49.310;8.646;2023-05-19T08:24:25;101067.34;;;31.20;27.39
19736;BME280;32064;49.310;8.646;2023-05-19T08:26:53;101059.22;;;31.50;27.62
19736;BME280;32064;49.310;8.646;2023-05-19T08:29:19;101063.25;;;31.77;26.75
19736;BME280;32064;49.310;8.646;2023-05-19T08:31:44;101057.81;;;31.89;26.59
19736;BME280;32064;49.310;8.646;2023-05-19T08:34:10;101055.09;;;32.31;27.55
19736;BME280;32064;49.310;8.646;2023-05-19T08:36:35;101050.03;;;32.70;25.77
19736;BME280;32064;49.310;8.646;2023-05-19T08:39:01;101049.50;;;32.97;26.35
19736;BME280;32064;49.310;8.646;2023-05-19T08:41:26;101059.41;;;32.62;25.80
19736;BME280;32064;49.310;8.646;2023-05-19T08:43:52;101055.94;;;33.02;25.40
19736;BME280;32064;49.310;8.646;2023-05-19T08:46:19;101049.09;;;31.57;26.55
19736;BME280;32064;49.310;8.646;2023-05-19T08:48:46;101055.59;;;30.64;27.25
19736;BME280;32064;49.310;8.646;2023-05-19T08:51:37;101043.81;;;30.20;27.35
19736;BME280;32064;49.310;8.646;2023-05-19T08:54:10;101044.75;;;30.82;26.81
19736;BME280;32064;49.310;8.646;2023-05-19T08:56:37;101044.00;;;31.61;26.38
19736;BME280;32064;49.310;8.646;2023-05-19T08:59:03;101045.63;;;31.50;26.33
19736;BME280;32064;49.310;8.646;2023-05-19T09:01:29;101036.41;;;30.59;27.70
19736;BME280;32064;49.310;8.646;2023-05-19T09:03:55;101033.28;;;30.99;26.72
19736;BME280;32064;49.310;8.646;2023-05-19T09:06:21;101025.78;;;31.31;26.54
19736;BME280;32064;49.310;8.646;2023-05-19T09:08:47;101026.13;;;31.35;26.51
19736;BME280;32064;49.310;8.646;2023-05-19T09:11:12;101022.41;;;30.80;26.69
19736;BME280;32064;49.310;8.646;2023-05-19T09:13:38;101021.53;;;30.61;27.17
19736;BME280;32064;49.310;8.646;2023-05-19T09:16:04;101024.34;;;31.10;26.73
19736;BME280;32064;49.310;8.646;2023-05-19T09:18:29;101017.63;;;32.03;26.65
19736;BME280;32064;49.310;8.646;2023-05-19T09:20:56;101014.81;;;32.45;25.66
19736;BME280;32064;49.310;8.646;2023-05-19T09:23:29;101010.94;;;32.64;26.43
19736;BME280;32064;49.310;8.646;2023-05-19T09:25:56;101007.91;;;33.01;26.25
19736;BME280;32064;49.310;8.646;2023-05-19T09:28:31;101005.47;;;32.64;25.15
19736;BME280;32064;49.310;8.646;2023-05-19T09:31:04;101004.56;;;32.47;25.85
19736;BME280;32064;49.310;8.646;2023-05-19T09:33:32;101007.63;;;33.15;25.19
19736;BME280;32064;49.310;8.646;2023-05-19T09:35:58;101001.69;;;33.46;24.85
19736;BME280;32064;49.310;8.646;2023-05-19T09:38:26;100999.44;;;33.89;24.56
19736;BME280;32064;49.310;8.646;2023-05-19T09:40:54;100997.66;;;34.50;24.86
19736;BME280;32064;49.310;8.646;2023-05-19T09:43:21;101011.59;;;33.64;24.65
19736;BME280;32064;49.310;8.646;2023-05-19T09:45:46;100996.31;;;33.80;24.16
19736;BME280;32064;49.310;8.646;2023-05-19T09:48:13;100995.56;;;32.99;25.08
19736;BME280;32064;49.310;8.646;2023-05-19T09:50:41;100991.56;;;33.30;24.99
19736;BME280;32064;49.310;8.646;2023-05-19T09:53:10;100993.25;;;32.67;25.23
19736;BME280;32064;49.310;8.646;2023-05-19T09:55:36;100995.28;;;33.52;25.17
19736;BME280;32064;49.310;8.646;2023-05-19T09:58:02;100992.16;;;33.94;23.70
19736;BME280;32064;49.310;8.646;2023-05-19T10:00:30;100983.22;;;33.37;23.94
19736;BME280;32064;49.310;8.646;2023-05-19T10:02:57;100985.94;;;33.65;24.14
19736;BME280;32064;49.310;8.646;2023-05-19T10:05:23;100980.91;;;32.41;24.50
19736;BME280;32064;49.310;8.646;2023-05-19T10:07:53;100977.78;;;32.96;24.54
19736;BME280;32064;49.310;8.646;2023-05-19T10:10:20;100977.00;;;34.04;24.57
19736;BME280;32064;49.310;8.646;2023-05-19T10:12:46;100976.09;;;34.32;24.37
19736;BME280;32064;49.310;8.646;2023-05-19T10:15:16;100977.75;;;34.94;23.11
19736;BME280;32064;49.310;8.646;2023-05-19T10:17:43;100977.47;;;34.51;22.72
19736;BME280;32064;49.310;8.646;2023-05-19T10:20:14;100972.72;;;34.85;24.00
19736;BME280;32064;49.310;8.646;2023-05-19T10:22:42;100959.94;;;34.91;23.59
19736;BME280;32064;49.310;8.646;2023-05-19T10:25:08;100958.84;;;34.70;23.06
19736;BME280;32064;49.310;8.646;2023-05-19T10:27:38;100961.72;;;34.80;22.95
19736;BME280;32064;49.310;8.646;2023-05-19T10:30:09;100952.28;;;35.15;22.75
19736;BME280;32064;49.310;8.646;2023-05-19T10:32:38;100954.84;;;35.54;22.77
19736;BME280;32064;49.310;8.646;2023-05-19T10:40:36;100953.38;;;34.92;22.19
19736;BME280;32064;49.310;8.646;2023-05-19T10:45:46;100949.16;;;34.40;22.75
19736;BME280;32064;49.310;8.646;2023-05-19T10:48:14;100946.38;;;33.85;22.17
19736;BME280;32064;49.310;8.646;2023-05-19T10:50:42;100942.25;;;33.82;22.52
19736;BME280;32064;49.310;8.646;2023-05-19T10:53:13;100951.34;;;33.25;21.95
19736;BME280;32064;49.310;8.646;2023-05-19T10:55:54;100941.03;;;32.58;22.77
19736;BME280;32064;49.310;8.646;2023-05-19T11:01:15;100948.38;;;29.98;25.06
19736;BME280;32064;49.310;8.646;2023-05-19T11:03:51;100947.66;;;31.38;24.62
19736;BME280;32064;49.310;8.646;2023-05-19T11:06:35;100933.19;;;32.38;23.40
19736;BME280;32064;49.310;8.646;2023-05-19T11:11:49;100936.69;;;31.57;24.08
19736;BME280;32064;49.310;8.646;2023-05-19T11:14:25;100927.72;;;30.77;24.74
19736;BME280;32064;49.310;8.646;2023-05-19T11:16:55;100934.81;;;29.98;25.64
19736;BME280;32064;49.310;8.646;2023-05-19T11:19:35;100935.09;;;29.58;25.89
19736;BME280;32064;49.310;8.646;2023-05-19T11:22:09;100923.66;;;29.56;25.98
19736;BME280;32064;49.310;8.646;2023-05-19T11:24:45;100922.31;;;30.15;25.76
19736;BME280;32064;49.310;8.646;2023-05-19T11:27:30;100917.78;;;30.09;26.37
19736;BME280;32064;49.310;8.646;2023-05-19T11:30:03;100912.19;;;30.29;26.11
19736;BME280;32064;49.310;8.646;2023-05-19T11:32:34;100911.66;;;30.39;26.13
19736;BME280;32064;49.310;8.646;2023-05-19T11:35:03;100912.63;;;30.45;25.98
19736;BME280;32064;49.310;8.646;2023-05-19T11:37:31;100906.75;;;29.54;26.71
19736;BME280;32064;49.310;8.646;2023-05-19T11:39:59;100918.91;;;30.20;25.83
19736;BME280;32064;49.310;8.646;2023-05-19T11:42:25;100920.63;;;30.39;26.24
19736;BME280;32064;49.310;8.646;2023-05-19T11:44:54;100921.50;;;30.15;27.10
19736;BME280;32064;49.310;8.646;2023-05-19T11:47:19;100921.72;;;29.63;26.55
19736;BME280;32064;49.310;8.646;2023-05-19T11:49:49;100922.25;;;29.79;26.30
19736;BME280;32064;49.310;8.646;2023-05-19T11:52:25;100914.72;;;29.17;26.71
19736;BME280;32064;49.310;8.646;2023-05-19T11:54:58;100913.09;;;28.58;28.34
19736;BME280;32064;49.310;8.646;2023-05-19T11:57:24;100920.00;;;28.27;28.75
19736;BME280;32064;49.310;8.646;2023-05-19T11:59:50;100908.41;;;28.00;28.18
19736;BME280;32064;49.310;8.646;2023-05-19T12:02:19;100905.03;;;28.18;28.44
19736;BME280;32064;49.310;8.646;2023-05-19T12:04:45;100912.97;;;28.13;29.42
19736;BME280;32064;49.310;8.646;2023-05-19T12:07:11;100905.72;;;28.00;28.72
19736;BME280;32064;49.310;8.646;2023-05-19T12:09:38;100902.16;;;27.80;29.08
19736;BME280;32064;49.310;8.646;2023-05-19T12:12:04;100910.06;;;27.61;29.22
19736;BME280;32064;49.310;8.646;2023-05-19T12:14:29;100911.28;;;27.39;29.71
19736;BME280;32064;49.310;8.646;2023-05-19T12:16:55;100904.53;;;27.15;29.61
19736;BME280;32064;49.310;8.646;2023-05-19T12:19:24;100907.81;;;27.03;30.69
19736;BME280;32064;49.310;8.646;2023-05-19T12:21:51;100907.41;;;26.93;31.22
19736;BME280;32064;49.310;8.646;2023-05-19T12:24:18;100911.94;;;26.86;31.04
19736;BME280;32064;49.310;8.646;2023-05-19T12:26:44;100910.78;;;26.60;31.32
19736;BME280;32064;49.310;8.646;2023-05-19T12:29:12;100907.16;;;26.47;32.17
19736;BME280;32064;49.310;8.646;2023-05-19T12:31:37;100901.13;;;26.10;32.75
19736;BME280;32064;49.310;8.646;2023-05-19T12:34:02;100901.75;;;26.12;32.11
19736;BME280;32064;49.310;8.646;2023-05-19T12:36:28;100913.16;;;26.07;32.30
19736;BME280;32064;49.310;8.646;2023-05-19T12:38:54;100903.81;;;26.10;32.48
19736;BME280;32064;49.310;8.646;2023-05-19T12:41:20;100914.16;;;26.06;32.77
19736;BME280;32064;49.310;8.646;2023-05-19T12:43:47;100900.78;;;26.19;32.51
19736;BME280;32064;49.310;8.646;2023-05-19T12:46:12;100904.06;;;26.15;32.90
19736;BME280;32064;49.310;8.646;2023-05-19T12:48:42;100899.66;;;26.07;32.86
19736;BME280;32064;49.310;8.646;2023-05-19T12:51:08;100911.22;;;26.01;33.16
19736;BME280;32064;49.310;8.646;2023-05-19T12:53:34;100906.03;;;25.78;32.76
19736;BME280;32064;49.310;8.646;2023-05-19T12:56:00;100904.00;;;25.59;33.59
19736;BME280;32064;49.310;8.646;2023-05-19T12:58:26;100898.19;;;25.55;33.31
19736;BME280;32064;49.310;8.646;2023-05-19T13:00:56;100898.22;;;25.62;33.59
19736;BME280;32064;49.310;8.646;2023-05-19T13:03:22;100899.53;;;25.66;33.91
19736;BME280;32064;49.310;8.646;2023-05-19T13:05:49;100899.78;;;25.71;33.08
19736;BME280;32064;49.310;8.646;2023-05-19T13:08:16;100904.56;;;25.75;33.41
19736;BME280;32064;49.310;8.646;2023-05-19T13:10:44;100901.38;;;25.65;33.39
19736;BME280;32064;49.310;8.646;2023-05-19T13:13:11;100907.78;;;25.64;33.47
19736;BME280;32064;49.310;8.646;2023-05-19T13:15:39;100908.78;;;25.57;33.88
19736;BME280;32064;49.310;8.646;2023-05-19T13:18:06;100913.31;;;25.35;33.60